sensor_id;sensor_type;location;lat;lon;timestamp;P1;durP1;ratioP1;P2;durP2;ratioP2
17052;SDS011;8643;48.824;11.422;2023-04-03T00:01:38;3.47;;;2.43;;
17052;SDS011;8643;48.824;11.422;2023-04-03T00:04:07;3.30;;;2.20;;
17052;SDS011;8643;48.824;11.422;2023-04-03T00:06:35;3.37;;;2.27;;
17052;SDS011;8643;48.824;11.422;2023-04-03T00:09:04;3.40;;;2.20;;
17052;SDS011;8643;48.824;11.422;2023-04-03T00:11:37;2.57;;;2.00;;
17052;SDS011;8643;48.824;11.422;2023-04-03T00:14:05;3.33;;;2.13;;
17052;SDS011;8643;48.824;11.422;2023-04-03T00:16:34;2.80;;;2.10;;
17052;SDS011;8643;48.824;11.422;2023-04-03T00:19:03;6.87;;;2.40;;
17052;SDS011;8643;48.824;11.422;2023-04-03T00:21:31;3.33;;;2.30;;
17052;SDS011;8643;48.824;11.422;2023-04-03T00:24:00;3.90;;;2.20;;
17052;SDS011;8643;48.824;11.422;2023-04-03T00:26:28;2.90;;;2.20;;
17052;SDS011;8643;48.824;11.422;2023-04-03T00:28:58;3.33;;;2.10;;
17052;SDS011;8643;48.824;11.422;2023-04-03T00:31:27;3.40;;;2.57;;
17052;SDS011;8643;48.824;11.422;2023-04-03T00:33:55;2.90;;;2.10;;
17052;SDS011;8643;48.824;11.422;2023-04-03T00:36:25;5.40;;;2.40;;
17052;SDS011;8643;48.824;11.422;2023-04-03T00:38:54;4.23;;;2.30;;
17052;SDS011;8643;48.824;11.422;2023-04-03T00:41:23;4.77;;;2.20;;
17052;SDS011;8643;48.824;11.422;2023-04-03T00:43:52;3.77;;;2.20;;
17052;SDS011;8643;48.824;11.422;2023-04-03T00:46:22;6.17;;;2.57;;
17052;SDS011;8643;48.824;11.422;2023-04-03T00:48:51;3.27;;;2.50;;
17052;SDS011;8643;48.824;11.422;2023-04-03T00:51:22;3.40;;;2.27;;
17052;SDS011;8643;48.824;11.422;2023-04-03T00:53:55;3.93;;;2.60;;
17052;SDS011;8643;48.824;11.422;2023-04-03T00:56:28;3.57;;;2.40;;
17052;SDS011;8643;48.824;11.422;2023-04-03T00:58:59;3.40;;;2.30;;
17052;SDS011;8643;48.824;11.422;2023-04-03T01:01:35;3.77;;;2.30;;
17052;SDS011;8643;48.824;11.422;2023-04-03T01:04:05;5.40;;;2.70;;
17052;SDS011;8643;48.824;11.422;2023-04-03T01:06:54;5.00;;;2.77;;
17052;SDS011;8643;48.824;11.422;2023-04-03T01:09:26;4.00;;;2.77;;
17052;SDS011;8643;48.824;11.422;2023-04-03T01:12:12;4.73;;;2.70;;
17052;SDS011;8643;48.824;11.422;2023-04-03T01:14:45;3.10;;;2.30;;
17052;SDS011;8643;48.824;11.422;2023-04-03T01:17:28;4.60;;;2.50;;
17052;SDS011;8643;48.824;11.422;2023-04-03T01:23:21;4.90;;;2.37;;
17052;SDS011;8643;48.824;11.422;2023-04-03T01:26:13;3.77;;;2.53;;
17052;SDS011;8643;48.824;11.422;2023-04-03T01:28:42;3.77;;;2.70;;
17052;SDS011;8643;48.824;11.422;2023-04-03T01:31:12;8.33;;;2.80;;
17052;SDS011;8643;48.824;11.422;2023-04-03T01:33:54;4.27;;;2.43;;
17052;SDS011;8643;48.824;11.422;2023-04-03T01:36:24;5.90;;;2.67;;
17052;SDS011;8643;48.824;11.422;2023-04-03T01:38:57;3.63;;;2.50;;
17052;SDS011;8643;48.824;11.422;2023-04-03T01:41:28;4.03;;;2.60;;
17052;SDS011;8643;48.824;11.422;2023-04-03T01:44:06;4.33;;;2.43;;
17052;SDS011;8643;48.824;11.422;2023-04-03T01:46:34;4.87;;;2.77;;
17052;SDS011;8643;48.824;11.422;2023-04-03T01:49:05;5.23;;;2.70;;
17052;SDS011;8643;48.824;11.422;2023-04-03T01:51:34;6.43;;;2.80;;
17052;SDS011;8643;48.824;11.422;2023-04-03T01:54:03;4.80;;;2.77;;
17052;SDS011;8643;48.824;11.422;2023-04-03T01:56:32;5.60;;;2.57;;
17052;SDS011;8643;48.824;11.422;2023-04-03T01:59:01;4.37;;;2.50;;
17052;SDS011;8643;48.824;11.422;2023-04-03T02:01:30;4.07;;;2.70;;
17052;SDS011;8643;48.824;11.422;2023-04-03T02:03:59;3.90;;;2.47;;
17052;SDS011;8643;48.824;11.422;2023-04-03T02:06:29;4.03;;;2.43;;
17052;SDS011;8643;48.824;11.422;2023-04-03T02:08:57;4.10;;;2.50;;
17052;SDS011;8643;48.824;11.422;2023-04-03T02:11:26;4.87;;;2.70;;
17052;SDS011;8643;48.824;11.422;2023-04-03T02:13:56;5.07;;;2.67;;
17052;SDS011;8643;48.824;11.422;2023-04-03T02:16:24;3.43;;;2.20;;
17052;SDS011;8643;48.824;11.422;2023-04-03T02:18:53;5.07;;;2.67;;
17052;SDS011;8643;48.824;11.422;2023-04-03T02:21:21;4.67;;;2.50;;
17052;SDS011;8643;48.824;11.422;2023-04-03T02:23:51;3.43;;;2.37;;
17052;SDS011;8643;48.824;11.422;2023-04-03T02:26:20;3.77;;;2.53;;
17052;SDS011;8643;48.824;11.422;2023-04-03T02:28:48;3.90;;;2.60;;
17052;SDS011;8643;48.824;11.422;2023-04-03T02:31:17;4.80;;;2.57;;
17052;SDS011;8643;48.824;11.422;2023-04-03T02:33:47;4.53;;;2.57;;
17052;SDS011;8643;48.824;11.422;2023-04-03T02:36:15;4.53;;;2.53;;
17052;SDS011;8643;48.824;11.422;2023-04-03T02:38:52;3.87;;;2.20;;
17052;SDS011;8643;48.824;11.422;2023-04-03T02:41:20;5.03;;;2.50;;
17052;SDS011;8643;48.824;11.422;2023-04-03T02:43:50;4.13;;;2.20;;
17052;SDS011;8643;48.824;11.422;2023-04-03T02:46:18;5.53;;;2.50;;
17052;SDS011;8643;48.824;11.422;2023-04-03T02:48:47;5.13;;;2.50;;
17052;SDS011;8643;48.824;11.422;2023-04-03T02:51:15;2.97;;;1.93;;
17052;SDS011;8643;48.824;11.422;2023-04-03T02:53:44;3.43;;;2.37;;
17052;SDS011;8643;48.824;11.422;2023-04-03T02:56:18;4.73;;;2.40;;
17052;SDS011;8643;48.824;11.422;2023-04-03T02:58:47;3.57;;;2.50;;
17052;SDS011;8643;48.824;11.422;2023-04-03T03:01:18;3.87;;;2.63;;
17052;SDS011;8643;48.824;11.422;2023-04-03T03:03:47;4.97;;;2.40;;
17052;SDS011;8643;48.824;11.422;2023-04-03T03:06:16;4.53;;;2.73;;
17052;SDS011;8643;48.824;11.422;2023-04-03T03:08:45;3.53;;;2.57;;
17052;SDS011;8643;48.824;11.422;2023-04-03T03:11:13;3.97;;;2.60;;
17052;SDS011;8643;48.824;11.422;2023-04-03T03:13:43;5.17;;;2.67;;
17052;SDS011;8643;48.824;11.422;2023-04-03T03:16:12;4.53;;;2.53;;
17052;SDS011;8643;48.824;11.422;2023-04-03T03:18:40;4.10;;;2.60;;
17052;SDS011;8643;48.824;11.422;2023-04-03T03:21:10;4.37;;;2.77;;
17052;SDS011;8643;48.824;11.422;2023-04-03T03:23:38;4.30;;;2.20;;
17052;SDS011;8643;48.824;11.422;2023-04-03T03:26:08;3.93;;;2.50;;
17052;SDS011;8643;48.824;11.422;2023-04-03T03:28:38;4.43;;;2.47;;
17052;SDS011;8643;48.824;11.422;2023-04-03T03:31:09;5.73;;;2.67;;
17052;SDS011;8643;48.824;11.422;2023-04-03T03:33:39;4.80;;;2.67;;
17052;SDS011;8643;48.824;11.422;2023-04-03T03:36:08;4.77;;;2.70;;
17052;SDS011;8643;48.824;11.422;2023-04-03T03:38:37;3.70;;;2.40;;
17052;SDS011;8643;48.824;11.422;2023-04-03T03:41:05;7.77;;;2.63;;
17052;SDS011;8643;48.824;11.422;2023-04-03T03:43:34;5.43;;;2.60;;
17052;SDS011;8643;48.824;11.422;2023-04-03T03:46:04;4.03;;;2.77;;
17052;SDS011;8643;48.824;11.422;2023-04-03T03:48:34;4.77;;;2.70;;
17052;SDS011;8643;48.824;11.422;2023-04-03T03:51:03;4.27;;;2.80;;
17052;SDS011;8643;48.824;11.422;2023-04-03T03:53:35;5.53;;;2.67;;
17052;SDS011;8643;48.824;11.422;2023-04-03T03:56:06;4.30;;;2.60;;
17052;SDS011;8643;48.824;11.422;2023-04-03T03:58:36;4.57;;;2.80;;
17052;SDS011;8643;48.824;11.422;2023-04-03T04:01:06;3.90;;;2.70;;
17052;SDS011;8643;48.824;11.422;2023-04-03T04:03:42;4.20;;;2.70;;
17052;SDS011;8643;48.824;11.422;2023-04-03T04:06:16;4.83;;;2.70;;
17052;SDS011;8643;48.824;11.422;2023-04-03T04:08:45;4.57;;;2.60;;
17052;SDS011;8643;48.824;11.422;2023-04-03T04:11:14;4.73;;;2.80;;
17052;SDS011;8643;48.824;11.422;2023-04-03T04:13:44;6.33;;;2.60;;
17052;SDS011;8643;48.824;11.422;2023-04-03T04:16:14;4.90;;;2.80;;
17052;SDS011;8643;48.824;11.422;2023-04-03T04:18:44;5.17;;;2.87;;
17052;SDS011;8643;48.824;11.422;2023-04-03T04:21:13;5.97;;;2.53;;
17052;SDS011;8643;48.824;11.422;2023-04-03T04:23:44;3.90;;;2.47;;
17052;SDS011;8643;48.824;11.422;2023-04-03T04:26:14;5.27;;;2.70;;
17052;SDS011;8643;48.824;11.422;2023-04-03T04:28:42;4.63;;;2.43;;
17052;SDS011;8643;48.824;11.422;2023-04-03T04:31:11;4.77;;;2.73;;
17052;SDS011;8643;48.824;11.422;2023-04-03T04:33:40;4.47;;;2.37;;
17052;SDS011;8643;48.824;11.422;2023-04-03T04:36:12;5.97;;;2.73;;
17052;SDS011;8643;48.824;11.422;2023-04-03T04:38:43;7.00;;;2.83;;
17052;SDS011;8643;48.824;11.422;2023-04-03T04:41:12;5.10;;;2.57;;
17052;SDS011;8643;48.824;11.422;2023-04-03T04:43:43;5.03;;;2.83;;
17052;SDS011;8643;48.824;11.422;2023-04-03T04:46:12;4.83;;;2.60;;
17052;SDS011;8643;48.824;11.422;2023-04-03T04:48:45;3.47;;;2.60;;
17052;SDS011;8643;48.824;11.422;2023-04-03T04:51:18;3.70;;;2.50;;
17052;SDS011;8643;48.824;11.422;2023-04-03T04:53:46;3.20;;;2.23;;
17052;SDS011;8643;48.824;11.422;2023-04-03T04:56:17;5.13;;;2.73;;
17052;SDS011;8643;48.824;11.422;2023-04-03T04:58:45;3.10;;;2.50;;
17052;SDS011;8643;48.824;11.422;2023-04-03T05:01:16;5.07;;;2.70;;
17052;SDS011;8643;48.824;11.422;2023-04-03T05:03:55;4.80;;;2.67;;
17052;SDS011;8643;48.824;11.422;2023-04-03T05:06:26;4.13;;;2.70;;
17052;SDS011;8643;48.824;11.422;2023-04-03T05:08:59;6.20;;;2.57;;
17052;SDS011;8643;48.824;11.422;2023-04-03T05:11:29;4.87;;;2.73;;
17052;SDS011;8643;48.824;11.422;2023-04-03T05:13:58;3.97;;;2.60;;
17052;SDS011;8643;48.824;11.422;2023-04-03T05:16:28;4.57;;;2.80;;
17052;SDS011;8643;48.824;11.422;2023-04-03T05:18:57;4.73;;;2.80;;
17052;SDS011;8643;48.824;11.422;2023-04-03T05:21:30;4.80;;;2.47;;
17052;SDS011;8643;48.824;11.422;2023-04-03T05:24:06;3.43;;;2.33;;
17052;SDS011;8643;48.824;11.422;2023-04-03T05:26:38;5.07;;;2.70;;
17052;SDS011;8643;48.824;11.422;2023-04-03T05:29:08;6.40;;;2.77;;
17052;SDS011;8643;48.824;11.422;2023-04-03T05:31:37;3.93;;;2.50;;
17052;SDS011;8643;48.824;11.422;2023-04-03T05:34:08;3.57;;;2.30;;
17052;SDS011;8643;48.824;11.422;2023-04-03T05:36:41;4.33;;;2.50;;
17052;SDS011;8643;48.824;11.422;2023-04-03T05:39:14;5.10;;;2.50;;
17052;SDS011;8643;48.824;11.422;2023-04-03T05:41:45;6.30;;;2.47;;
17052;SDS011;8643;48.824;11.422;2023-04-03T05:44:14;4.53;;;2.50;;
17052;SDS011;8643;48.824;11.422;2023-04-03T05:46:44;5.53;;;2.43;;
17052;SDS011;8643;48.824;11.422;2023-04-03T05:49:14;5.60;;;2.73;;
17052;SDS011;8643;48.824;11.422;2023-04-03T05:51:44;3.80;;;2.40;;
17052;SDS011;8643;48.824;11.422;2023-04-03T05:54:23;5.83;;;2.80;;
17052;SDS011;8643;48.824;11.422;2023-04-03T05:57:00;4.67;;;2.73;;
17052;SDS011;8643;48.824;11.422;2023-04-03T05:59:29;5.47;;;2.60;;
17052;SDS011;8643;48.824;11.422;2023-04-03T06:01:59;5.37;;;2.63;;
17052;SDS011;8643;48.824;11.422;2023-04-03T06:04:28;4.97;;;2.90;;
17052;SDS011;8643;48.824;11.422;2023-04-03T06:06:59;5.43;;;2.80;;
17052;SDS011;8643;48.824;11.422;2023-04-03T06:09:27;7.63;;;2.50;;
17052;SDS011;8643;48.824;11.422;2023-04-03T06:11:58;5.33;;;3.10;;
17052;SDS011;8643;48.824;11.422;2023-04-03T06:14:28;5.23;;;3.03;;
17052;SDS011;8643;48.824;11.422;2023-04-03T06:16:57;3.73;;;2.47;;
17052;SDS011;8643;48.824;11.422;2023-04-03T06:19:26;6.17;;;2.67;;
17052;SDS011;8643;48.824;11.422;2023-04-03T06:21:56;5.30;;;2.90;;
17052;SDS011;8643;48.824;11.422;2023-04-03T06:24:26;5.47;;;3.03;;
17052;SDS011;8643;48.824;11.422;2023-04-03T06:26:55;6.03;;;3.10;;
17052;SDS011;8643;48.824;11.422;2023-04-03T06:29:24;6.17;;;2.70;;
17052;SDS011;8643;48.824;11.422;2023-04-03T06:31:53;3.30;;;2.60;;
17052;SDS011;8643;48.824;11.422;2023-04-03T06:34:21;4.77;;;2.77;;
17052;SDS011;8643;48.824;11.422;2023-04-03T06:36:50;5.73;;;3.13;;
17052;SDS011;8643;48.824;11.422;2023-04-03T06:39:21;5.17;;;3.20;;
17052;SDS011;8643;48.824;11.422;2023-04-03T06:41:50;5.43;;;2.97;;
17052;SDS011;8643;48.824;11.422;2023-04-03T06:44:27;6.47;;;3.27;;
17052;SDS011;8643;48.824;11.422;2023-04-03T06:46:55;7.13;;;3.47;;
17052;SDS011;8643;48.824;11.422;2023-04-03T06:49:23;5.77;;;3.47;;
17052;SDS011;8643;48.824;11.422;2023-04-03T06:51:52;4.57;;;3.20;;
17052;SDS011;8643;48.824;11.422;2023-04-03T06:54:23;4.87;;;3.60;;
17052;SDS011;8643;48.824;11.422;2023-04-03T06:56:51;6.70;;;3.33;;
17052;SDS011;8643;48.824;11.422;2023-04-03T06:59:20;9.20;;;3.53;;
17052;SDS011;8643;48.824;11.422;2023-04-03T07:01:49;5.43;;;2.87;;
17052;SDS011;8643;48.824;11.422;2023-04-03T07:04:18;4.70;;;2.93;;
17052;SDS011;8643;48.824;11.422;2023-04-03T07:06:47;6.13;;;3.47;;
17052;SDS011;8643;48.824;11.422;2023-04-03T07:09:16;9.27;;;3.30;;
17052;SDS011;8643;48.824;11.422;2023-04-03T07:11:46;6.30;;;3.50;;
17052;SDS011;8643;48.824;11.422;2023-04-03T07:14:14;7.57;;;3.17;;
17052;SDS011;8643;48.824;11.422;2023-04-03T07:16:42;5.23;;;3.43;;
17052;SDS011;8643;48.824;11.422;2023-04-03T07:19:11;5.20;;;3.50;;
17052;SDS011;8643;48.824;11.422;2023-04-03T07:21:39;6.60;;;3.80;;
17052;SDS011;8643;48.824;11.422;2023-04-03T07:24:09;7.23;;;3.63;;
17052;SDS011;8643;48.824;11.422;2023-04-03T07:26:42;7.37;;;3.97;;
17052;SDS011;8643;48.824;11.422;2023-04-03T07:29:13;7.30;;;3.60;;
17052;SDS011;8643;48.824;11.422;2023-04-03T07:31:41;6.10;;;3.63;;
17052;SDS011;8643;48.824;11.422;2023-04-03T07:34:11;7.27;;;3.50;;
17052;SDS011;8643;48.824;11.422;2023-04-03T07:36:39;6.33;;;3.20;;
17052;SDS011;8643;48.824;11.422;2023-04-03T07:39:08;4.77;;;3.23;;
17052;SDS011;8643;48.824;11.422;2023-04-03T07:41:37;9.67;;;3.30;;
17052;SDS011;8643;48.824;11.422;2023-04-03T07:44:06;4.67;;;3.10;;
17052;SDS011;8643;48.824;11.422;2023-04-03T07:46:37;7.17;;;3.47;;
17052;SDS011;8643;48.824;11.422;2023-04-03T07:49:06;4.80;;;3.20;;
17052;SDS011;8643;48.824;11.422;2023-04-03T07:51:35;6.57;;;3.50;;
17052;SDS011;8643;48.824;11.422;2023-04-03T07:54:04;5.50;;;3.40;;
17052;SDS011;8643;48.824;11.422;2023-04-03T07:56:33;6.20;;;3.10;;
17052;SDS011;8643;48.824;11.422;2023-04-03T07:59:01;4.90;;;2.97;;
17052;SDS011;8643;48.824;11.422;2023-04-03T08:01:30;6.23;;;3.10;;
17052;SDS011;8643;48.824;11.422;2023-04-03T08:04:01;6.10;;;2.97;;
17052;SDS011;8643;48.824;11.422;2023-04-03T08:06:30;5.73;;;3.27;;
17052;SDS011;8643;48.824;11.422;2023-04-03T08:09:12;6.63;;;3.30;;
17052;SDS011;8643;48.824;11.422;2023-04-03T08:11:42;4.03;;;2.90;;
17052;SDS011;8643;48.824;11.422;2023-04-03T08:14:11;5.83;;;3.00;;
17052;SDS011;8643;48.824;11.422;2023-04-03T08:16:43;5.30;;;3.00;;
17052;SDS011;8643;48.824;11.422;2023-04-03T08:19:14;5.20;;;3.00;;
17052;SDS011;8643;48.824;11.422;2023-04-03T08:21:52;5.73;;;2.97;;
17052;SDS011;8643;48.824;11.422;2023-04-03T08:24:22;3.77;;;2.90;;
17052;SDS011;8643;48.824;11.422;2023-04-03T08:26:50;4.10;;;2.93;;
17052;SDS011;8643;48.824;11.422;2023-04-03T08:29:19;4.80;;;2.90;;
17052;SDS011;8643;48.824;11.422;2023-04-03T08:31:48;6.53;;;3.33;;
17052;SDS011;8643;48.824;11.422;2023-04-03T08:34:18;4.83;;;2.77;;
17052;SDS011;8643;48.824;11.422;2023-04-03T08:36:47;4.43;;;2.80;;
17052;SDS011;8643;48.824;11.422;2023-04-03T08:39:16;5.93;;;2.87;;
17052;SDS011;8643;48.824;11.422;2023-04-03T08:41:45;4.93;;;3.20;;
17052;SDS011;8643;48.824;11.422;2023-04-03T08:44:16;7.10;;;2.97;;
17052;SDS011;8643;48.824;11.422;2023-04-03T08:46:56;4.57;;;2.63;;
17052;SDS011;8643;48.824;11.422;2023-04-03T08:49:41;5.57;;;2.50;;
17052;SDS011;8643;48.824;11.422;2023-04-03T08:52:15;3.93;;;2.70;;
17052;SDS011;8643;48.824;11.422;2023-04-03T08:54:49;3.20;;;2.70;;
17052;SDS011;8643;48.824;11.422;2023-04-03T08:57:24;4.43;;;2.40;;
17052;SDS011;8643;48.824;11.422;2023-04-03T08:59:59;4.40;;;2.70;;
17052;SDS011;8643;48.824;11.422;2023-04-03T09:02:45;4.83;;;2.57;;
17052;SDS011;8643;48.824;11.422;2023-04-03T09:05:19;4.10;;;2.70;;
17052;SDS011;8643;48.824;11.422;2023-04-03T09:08:14;3.73;;;2.50;;
17052;SDS011;8643;48.824;11.422;2023-04-03T09:10:55;4.83;;;2.50;;
17052;SDS011;8643;48.824;11.422;2023-04-03T09:13:39;4.40;;;2.30;;
17052;SDS011;8643;48.824;11.422;2023-04-03T09:16:21;3.70;;;2.43;;
17052;SDS011;8643;48.824;11.422;2023-04-03T09:19:06;4.27;;;2.50;;
17052;SDS011;8643;48.824;11.422;2023-04-03T09:21:48;5.97;;;2.67;;
17052;SDS011;8643;48.824;11.422;2023-04-03T09:24:16;3.20;;;2.40;;
17052;SDS011;8643;48.824;11.422;2023-04-03T09:26:51;3.20;;;2.13;;
17052;SDS011;8643;48.824;11.422;2023-04-03T09:29:26;4.27;;;2.17;;
17052;SDS011;8643;48.824;11.422;2023-04-03T09:31:57;3.50;;;2.07;;
17052;SDS011;8643;48.824;11.422;2023-04-03T09:34:29;5.83;;;2.00;;
17052;SDS011;8643;48.824;11.422;2023-04-03T09:37:03;3.50;;;1.90;;
17052;SDS011;8643;48.824;11.422;2023-04-03T09:39:49;3.33;;;1.77;;
17052;SDS011;8643;48.824;11.422;2023-04-03T09:42:22;5.77;;;1.90;;
17052;SDS011;8643;48.824;11.422;2023-04-03T09:44:53;3.20;;;1.77;;
17052;SDS011;8643;48.824;11.422;2023-04-03T09:47:24;5.03;;;1.97;;
17052;SDS011;8643;48.824;11.422;2023-04-03T09:50:08;3.07;;;1.70;;
17052;SDS011;8643;48.824;11.422;2023-04-03T09:52:52;2.00;;;1.60;;
17052;SDS011;8643;48.824;11.422;2023-04-03T09:55:21;6.77;;;2.00;;
17052;SDS011;8643;48.824;11.422;2023-04-03T09:57:57;3.07;;;1.83;;
17052;SDS011;8643;48.824;11.422;2023-04-03T10:00:30;2.80;;;1.73;;
17052;SDS011;8643;48.824;11.422;2023-04-03T10:03:03;3.27;;;1.77;;
17052;SDS011;8643;48.824;11.422;2023-04-03T10:05:50;5.43;;;1.90;;
17052;SDS011;8643;48.824;11.422;2023-04-03T10:08:24;2.23;;;1.70;;
17052;SDS011;8643;48.824;11.422;2023-04-03T10:11:07;3.23;;;1.70;;
17052;SDS011;8643;48.824;11.422;2023-04-03T10:13:49;3.20;;;1.60;;
17052;SDS011;8643;48.824;11.422;2023-04-03T10:16:27;3.07;;;1.50;;
17052;SDS011;8643;48.824;11.422;2023-04-03T10:19:14;4.33;;;1.80;;
17052;SDS011;8643;48.824;11.422;2023-04-03T10:22:12;5.93;;;1.70;;
17052;SDS011;8643;48.824;11.422;2023-04-03T10:25:04;2.67;;;1.63;;
17052;SDS011;8643;48.824;11.422;2023-04-03T10:27:46;3.37;;;1.73;;
17052;SDS011;8643;48.824;11.422;2023-04-03T10:30:33;3.70;;;1.67;;
17052;SDS011;8643;48.824;11.422;2023-04-03T10:33:23;4.13;;;1.83;;
17052;SDS011;8643;48.824;11.422;2023-04-03T10:36:10;2.47;;;1.37;;
17052;SDS011;8643;48.824;11.422;2023-04-03T10:38:56;2.63;;;1.60;;
17052;SDS011;8643;48.824;11.422;2023-04-03T10:41:43;2.67;;;1.37;;
17052;SDS011;8643;48.824;11.422;2023-04-03T10:44:42;4.83;;;1.60;;
17052;SDS011;8643;48.824;11.422;2023-04-03T10:47:37;4.37;;;1.50;;
17052;SDS011;8643;48.824;11.422;2023-04-03T10:50:26;3.20;;;1.40;;
17052;SDS011;8643;48.824;11.422;2023-04-03T10:53:08;2.57;;;1.37;;
17052;SDS011;8643;48.824;11.422;2023-04-03T10:55:49;2.33;;;1.40;;
17052;SDS011;8643;48.824;11.422;2023-04-03T10:58:26;2.60;;;1.40;;
17052;SDS011;8643;48.824;11.422;2023-04-03T11:01:03;3.40;;;1.40;;
17052;SDS011;8643;48.824;11.422;2023-04-03T11:03:40;4.50;;;1.40;;
17052;SDS011;8643;48.824;11.422;2023-04-03T11:06:15;2.77;;;1.47;;
17052;SDS011;8643;48.824;11.422;2023-04-03T11:08:48;2.47;;;1.37;;
17052;SDS011;8643;48.824;11.422;2023-04-03T11:11:24;3.47;;;1.17;;
17052;SDS011;8643;48.824;11.422;2023-04-03T11:14:01;3.87;;;1.30;;
17052;SDS011;8643;48.824;11.422;2023-04-03T11:16:39;1.90;;;1.37;;
17052;SDS011;8643;48.824;11.422;2023-04-03T11:19:20;2.53;;;1.40;;
17052;SDS011;8643;48.824;11.422;2023-04-03T11:22:01;2.97;;;1.30;;
17052;SDS011;8643;48.824;11.422;2023-04-03T11:24:39;4.20;;;1.33;;
17052;SDS011;8643;48.824;11.422;2023-04-03T11:27:15;2.30;;;1.40;;
17052;SDS011;8643;48.824;11.422;2023-04-03T11:29:51;4.00;;;1.90;;
17052;SDS011;8643;48.824;11.422;2023-04-03T11:32:36;3.83;;;1.40;;
17052;SDS011;8643;48.824;11.422;2023-04-03T11:35:30;2.73;;;1.50;;
17052;SDS011;8643;48.824;11.422;2023-04-03T11:38:02;2.27;;;1.40;;
17052;SDS011;8643;48.824;11.422;2023-04-03T11:40:34;3.13;;;1.60;;
17052;SDS011;8643;48.824;11.422;2023-04-03T11:43:06;3.50;;;1.40;;
17052;SDS011;8643;48.824;11.422;2023-04-03T11:45:57;2.93;;;1.30;;
17052;SDS011;8643;48.824;11.422;2023-04-03T11:48:48;4.17;;;2.13;;
17052;SDS011;8643;48.824;11.422;2023-04-03T11:51:38;2.17;;;1.10;;
17052;SDS011;8643;48.824;11.422;2023-04-03T11:57:22;2.37;;;1.10;;
17052;SDS011;8643;48.824;11.422;2023-04-03T12:06:48;3.20;;;1.10;;
17052;SDS011;8643;48.824;11.422;2023-04-03T12:09:34;4.47;;;1.83;;
17052;SDS011;8643;48.824;11.422;2023-04-03T12:12:26;4.15;;;1.50;;
17052;SDS011;8643;48.824;11.422;2023-04-03T12:15:18;6.07;;;1.77;;
17052;SDS011;8643;48.824;11.422;2023-04-03T12:17:55;2.47;;;1.33;;
17052;SDS011;8643;48.824;11.422;2023-04-03T12:23:30;2.42;;;1.88;;
17052;SDS011;8643;48.824;11.422;2023-04-03T12:26:05;3.20;;;1.30;;
17052;SDS011;8643;48.824;11.422;2023-04-03T12:28:50;2.65;;;1.42;;
17052;SDS011;8643;48.824;11.422;2023-04-03T12:31:22;2.60;;;1.55;;
17052;SDS011;8643;48.824;11.422;2023-04-03T12:34:11;2.42;;;1.25;;
17052;SDS011;8643;48.824;11.422;2023-04-03T12:36:58;3.45;;;1.70;;
17052;SDS011;8643;48.824;11.422;2023-04-03T12:39:41;2.42;;;1.42;;
17052;SDS011;8643;48.824;11.422;2023-04-03T12:42:31;2.55;;;1.30;;
17052;SDS011;8643;48.824;11.422;2023-04-03T12:45:23;7.53;;;2.80;;
17052;SDS011;8643;48.824;11.422;2023-04-03T12:47:54;3.53;;;1.60;;
17052;SDS011;8643;48.824;11.422;2023-04-03T12:50:27;8.13;;;4.07;;
17052;SDS011;8643;48.824;11.422;2023-04-03T12:53:01;2.23;;;1.30;;
17052;SDS011;8643;48.824;11.422;2023-04-03T12:55:33;1.17;;;1.00;;
17052;SDS011;8643;48.824;11.422;2023-04-03T12:58:13;2.33;;;1.10;;
17052;SDS011;8643;48.824;11.422;2023-04-03T13:00:44;3.00;;;1.20;;
17052;SDS011;8643;48.824;11.422;2023-04-03T13:03:21;2.70;;;1.10;;
17052;SDS011;8643;48.824;11.422;2023-04-03T13:05:56;2.13;;;1.20;;
17052;SDS011;8643;48.824;11.422;2023-04-03T13:08:28;1.60;;;1.10;;
17052;SDS011;8643;48.824;11.422;2023-04-03T13:10:58;2.65;;;1.20;;
17052;SDS011;8643;48.824;11.422;2023-04-03T13:13:30;2.83;;;1.10;;
17052;SDS011;8643;48.824;11.422;2023-04-03T13:15:59;2.40;;;1.10;;
17052;SDS011;8643;48.824;11.422;2023-04-03T13:18:37;2.70;;;1.23;;
17052;SDS011;8643;48.824;11.422;2023-04-03T13:21:08;3.20;;;1.08;;
17052;SDS011;8643;48.824;11.422;2023-04-03T13:23:46;2.10;;;1.17;;
17052;SDS011;8643;48.824;11.422;2023-04-03T13:26:32;5.43;;;1.10;;
17052;SDS011;8643;48.824;11.422;2023-04-03T13:29:02;2.40;;;1.20;;
17052;SDS011;8643;48.824;11.422;2023-04-03T13:31:43;2.60;;;1.13;;
17052;SDS011;8643;48.824;11.422;2023-04-03T13:34:13;4.05;;;1.10;;
17052;SDS011;8643;48.824;11.422;2023-04-03T13:36:56;2.28;;;1.25;;
17052;SDS011;8643;48.824;11.422;2023-04-03T13:39:28;2.88;;;1.25;;
17052;SDS011;8643;48.824;11.422;2023-04-03T13:41:59;2.53;;;1.00;;
17052;SDS011;8643;48.824;11.422;2023-04-03T13:44:42;2.28;;;1.05;;
17052;SDS011;8643;48.824;11.422;2023-04-03T13:47:15;2.35;;;1.20;;
17052;SDS011;8643;48.824;11.422;2023-04-03T13:49:58;1.38;;;0.88;;
17052;SDS011;8643;48.824;11.422;2023-04-03T13:52:32;4.00;;;1.27;;
17052;SDS011;8643;48.824;11.422;2023-04-03T13:55:15;2.08;;;1.13;;
17052;SDS011;8643;48.824;11.422;2023-04-03T13:57:53;2.17;;;1.15;;
17052;SDS011;8643;48.824;11.422;2023-04-03T14:00:28;1.30;;;0.90;;
17052;SDS011;8643;48.824;11.422;2023-04-03T14:03:02;2.05;;;1.20;;
17052;SDS011;8643;48.824;11.422;2023-04-03T14:05:41;1.85;;;1.10;;
17052;SDS011;8643;48.824;11.422;2023-04-03T14:08:12;2.00;;;1.10;;
17052;SDS011;8643;48.824;11.422;2023-04-03T14:10:42;2.00;;;0.98;;
17052;SDS011;8643;48.824;11.422;2023-04-03T14:13:13;1.63;;;1.03;;
17052;SDS011;8643;48.824;11.422;2023-04-03T14:15:46;1.97;;;1.10;;
17052;SDS011;8643;48.824;11.422;2023-04-03T14:18:18;1.40;;;0.87;;
17052;SDS011;8643;48.824;11.422;2023-04-03T14:20:49;2.42;;;1.10;;
17052;SDS011;8643;48.824;11.422;2023-04-03T14:23:19;1.83;;;1.00;;
17052;SDS011;8643;48.824;11.422;2023-04-03T14:25:47;2.05;;;1.10;;
17052;SDS011;8643;48.824;11.422;2023-04-03T14:28:17;2.90;;;1.27;;
17052;SDS011;8643;48.824;11.422;2023-04-03T14:30:49;2.13;;;1.23;;
17052;SDS011;8643;48.824;11.422;2023-04-03T14:33:19;3.17;;;0.93;;
17052;SDS011;8643;48.824;11.422;2023-04-03T14:35:49;1.90;;;1.10;;
17052;SDS011;8643;48.824;11.422;2023-04-03T14:38:23;1.87;;;1.10;;
17052;SDS011;8643;48.824;11.422;2023-04-03T14:40:54;3.13;;;1.00;;
17052;SDS011;8643;48.824;11.422;2023-04-03T14:43:39;2.00;;;1.00;;
17052;SDS011;8643;48.824;11.422;2023-04-03T14:46:10;2.92;;;1.05;;
17052;SDS011;8643;48.824;11.422;2023-04-03T14:48:43;2.22;;;0.90;;
17052;SDS011;8643;48.824;11.422;2023-04-03T14:51:12;1.75;;;1.10;;
17052;SDS011;8643;48.824;11.422;2023-04-03T14:53:44;3.38;;;1.10;;
17052;SDS011;8643;48.824;11.422;2023-04-03T14:56:22;2.97;;;1.00;;
17052;SDS011;8643;48.824;11.422;2023-04-03T14:58:54;2.15;;;1.10;;
17052;SDS011;8643;48.824;11.422;2023-04-03T15:01:28;2.15;;;1.00;;
17052;SDS011;8643;48.824;11.422;2023-04-03T15:03:57;2.72;;;1.00;;
17052;SDS011;8643;48.824;11.422;2023-04-03T15:06:25;1.70;;;1.00;;
17052;SDS011;8643;48.824;11.422;2023-04-03T15:08:55;1.80;;;1.17;;
17052;SDS011;8643;48.824;11.422;2023-04-03T15:11:23;2.28;;;1.00;;
17052;SDS011;8643;48.824;11.422;2023-04-03T15:13:53;1.70;;;1.00;;
17052;SDS011;8643;48.824;11.422;2023-04-03T15:16:21;2.30;;;1.10;;
17052;SDS011;8643;48.824;11.422;2023-04-03T15:18:50;2.37;;;0.90;;
17052;SDS011;8643;48.824;11.422;2023-04-03T15:21:18;1.33;;;0.90;;
17052;SDS011;8643;48.824;11.422;2023-04-03T15:23:47;3.53;;;1.10;;
17052;SDS011;8643;48.824;11.422;2023-04-03T15:26:16;2.13;;;0.83;;
17052;SDS011;8643;48.824;11.422;2023-04-03T15:28:45;2.23;;;1.00;;
17052;SDS011;8643;48.824;11.422;2023-04-03T15:31:13;1.70;;;0.83;;
17052;SDS011;8643;48.824;11.422;2023-04-03T15:33:42;1.53;;;1.10;;
17052;SDS011;8643;48.824;11.422;2023-04-03T15:36:10;2.38;;;0.98;;
17052;SDS011;8643;48.824;11.422;2023-04-03T15:38:58;2.58;;;0.90;;
17052;SDS011;8643;48.824;11.422;2023-04-03T15:41:28;3.70;;;1.10;;